Time;durP1;ratioP1;P1;durP2;ratioP2;P2;SDS_P1;SDS_P2;PMS_P1;PMS_P2;Temp;Humidity;BMP_temperature;BMP_pressure;BME280_temperature;BME280_humidity;BME280_pressure;Samples;Min_cycle;Max_cycle;Signal;HPM_P1;HPM_P2
2022/07/14 00:01:03;;;;;;;13.15;2.70;;;14.40;99.90;;;;;;4995650;28;20099;-66
2022/07/14 00:03:29;;;;;;;7.13;2.08;;;14.50;99.90;;;;;;4996713;28;20050;-68
2022/07/14 00:05:54;;;;;;;7.88;2.40;;;14.40;99.90;;;;;;4969746;28;20046;-65
2022/07/14 00:08:20;;;;;;;9.20;2.58;;;14.40;99.90;;;;;;4977352;28;20049;-66
2022/07/14 00:10:46;;;;;;;9.13;2.65;;;14.40;99.90;;;;;;4979538;28;20095;-65
2022/07/14 00:13:12;;;;;;;8.32;2.60;;;14.40;99.90;;;;;;4997126;28;20794;-65
2022/07/14 00:15:38;;;;;;;10.77;2.75;;;14.40;99.90;;;;;;4992197;28;20052;-65
2022/07/14 00:18:03;;;;;;;6.72;2.30;;;14.40;99.90;;;;;;5010054;28;20491;-66
2022/07/14 00:20:29;;;;;;;6.43;2.30;;;14.40;99.90;;;;;;4994943;28;20050;-65
2022/07/14 00:22:58;;;;;;;8.57;2.40;;;14.30;99.90;;;;;;4985157;28;20046;-66
2022/07/14 00:25:24;;;;;;;8.35;2.50;;;14.20;99.90;;;;;;4994524;28;20447;-67
2022/07/14 00:27:51;;;;;;;10.85;2.47;;;14.20;99.90;;;;;;4975094;28;20049;-65
2022/07/14 00:30:17;;;;;;;13.27;2.35;;;14.10;99.90;;;;;;5012067;28;20129;-65
2022/07/14 00:32:43;;;;;;;9.30;2.80;;;14.10;99.90;;;;;;4991738;28;20414;-67
2022/07/14 00:35:09;;;;;;;7.85;2.17;;;14.00;99.90;;;;;;4979789;28;20061;-65
2022/07/14 00:37:35;;;;;;;8.13;2.35;;;14.00;99.90;;;;;;4978970;28;20108;-66
2022/07/14 00:40:04;;;;;;;7.68;2.00;;;14.00;99.90;;;;;;4980231;28;20057;-65
2022/07/14 00:42:34;;;;;;;11.32;2.58;;;13.90;99.90;;;;;;4992082;28;20050;-66
2022/07/14 00:45:05;;;;;;;7.47;2.55;;;13.80;99.90;;;;;;5002356;28;20103;-65
2022/07/14 00:47:31;;;;;;;;;;;13.70;99.90;;;;;;5012207;28;20049;-66
2022/07/14 00:49:57;;;;;;;6.68;2.30;;;13.60;99.90;;;;;;4992979;28;20012;-66
2022/07/14 00:52:25;;;;;;;7.93;2.72;;;13.60;99.90;;;;;;4988002;28;20108;-69
2022/07/14 00:54:51;;;;;;;11.23;3.15;;;13.60;99.90;;;;;;4998849;28;20045;-66
2022/07/14 00:57:18;;;;;;;13.45;2.70;;;13.60;99.90;;;;;;4999647;28;20140;-65
2022/07/14 00:59:44;;;;;;;11.68;3.35;;;13.70;99.90;;;;;;4982608;28;20125;-67
2022/07/14 01:02:10;;;;;;;6.93;2.42;;;13.70;99.90;;;;;;4978825;28;21178;-66
2022/07/14 01:04:36;;;;;;;13.93;3.10;;;13.80;99.90;;;;;;4995940;28;20089;-66
2022/07/14 01:07:02;;;;;;;12.75;3.10;;;13.80;99.90;;;;;;4976780;28;20499;-66
2022/07/14 01:09:28;;;;;;;12.27;3.10;;;13.80;99.90;;;;;;4975826;28;20132;-66
2022/07/14 01:11:54;;;;;;;9.15;2.78;;;13.80;99.90;;;;;;4990935;28;20124;-66
2022/07/14 01:14:20;;;;;;;11.82;2.97;;;13.80;99.90;;;;;;4998198;28;20084;-66
2022/07/14 01:16:46;;;;;;;8.25;2.90;;;13.80;99.90;;;;;;4994536;28;20072;-66
2022/07/14 01:19:12;;;;;;;12.27;2.90;;;13.60;99.90;;;;;;4998873;28;20561;-66
2022/07/14 01:21:39;;;;;;;13.00;3.13;;;13.60;99.90;;;;;;4980921;28;20064;-67
2022/07/14 01:24:05;;;;;;;12.23;2.88;;;13.50;99.90;;;;;;5003168;28;20054;-67
2022/07/14 01:26:30;;;;;;;8.70;2.83;;;13.40;99.90;;;;;;5007109;28;20057;-66
2022/07/14 01:28:56;;;;;;;7.15;2.60;;;13.40;99.90;;;;;;4988650;28;20093;-66
2022/07/14 01:31:22;;;;;;;12.20;3.00;;;13.30;99.90;;;;;;5031215;28;20045;-69
2022/07/14 01:33:47;;;;;;;9.00;2.72;;;13.20;99.90;;;;;;4988322;28;20041;-68
2022/07/14 01:36:13;;;;;;;12.07;3.10;;;13.20;99.90;;;;;;4982577;28;20420;-65
2022/07/14 01:38:38;;;;;;;11.70;3.15;;;13.20;99.90;;;;;;5000752;28;20134;-65
2022/07/14 01:41:04;;;;;;;9.45;2.90;;;13.10;99.90;;;;;;4998427;28;20041;-65
2022/07/14 01:43:30;;;;;;;10.00;2.90;;;13.00;99.90;;;;;;4976770;28;20067;-67
2022/07/14 01:45:55;;;;;;;10.05;3.25;;;13.00;99.90;;;;;;4986475;28;20046;-65
2022/07/14 01:48:21;;;;;;;9.45;2.97;;;13.00;99.90;;;;;;4985934;28;20064;-66
2022/07/14 01:50:47;;;;;;;8.77;2.80;;;13.00;99.90;;;;;;4996695;28;20041;-68
2022/07/14 01:53:14;;;;;;;7.72;2.63;;;13.00;99.90;;;;;;4983320;28;20085;-66
2022/07/14 01:55:39;;;;;;;11.15;3.03;;;12.90;99.90;;;;;;5028026;28;20061;-66
2022/07/14 01:58:05;;;;;;;9.00;2.97;;;12.90;99.90;;;;;;4979203;28;20125;-65
2022/07/14 02:00:31;;;;;;;11.07;3.22;;;12.80;99.90;;;;;;4978499;28;20060;-65
2022/07/14 02:02:56;;;;;;;9.02;3.20;;;12.80;99.90;;;;;;4995020;28;20049;-65
2022/07/14 02:05:22;;;;;;;7.93;2.90;;;12.70;99.90;;;;;;4994626;28;20049;-65
2022/07/14 02:07:48;;;;;;;9.23;2.67;;;12.70;99.90;;;;;;4989266;28;20056;-70
2022/07/14 02:12:57;;;;;;;9.27;2.90;;;12.60;99.90;;;;;;4980880;28;20505;-66
2022/07/14 02:15:23;;;;;;;8.80;2.65;;;12.60;99.90;;;;;;4978251;28;20045;-66
2022/07/14 02:17:49;;;;;;;1.90;1.40;;;12.60;99.90;;;;;;4975870;28;20045;-66
2022/07/14 02:20:15;;;;;;;6.65;2.45;;;12.50;99.90;;;;;;5029392;28;20045;-65
2022/07/14 02:22:40;;;;;;;4.93;2.97;;;12.40;99.90;;;;;;4989161;28;20065;-66
2022/07/14 02:25:07;;;;;;;11.05;3.40;;;12.40;99.90;;;;;;4977046;28;20105;-65
2022/07/14 02:27:33;;;;;;;5.40;2.20;;;12.30;99.90;;;;;;5009064;28;20073;-65
2022/07/14 02:29:59;;;;;;;5.68;2.22;;;12.30;99.90;;;;;;4998765;28;20076;-66
2022/07/14 02:32:24;;;;;;;10.15;3.53;;;12.20;99.90;;;;;;4969519;28;20053;-66
2022/07/14 02:34:50;;;;;;;8.45;2.58;;;12.10;99.90;;;;;;4964229;28;20053;-68
2022/07/14 02:37:16;;;;;;;8.25;2.95;;;12.10;99.90;;;;;;5008063;28;20049;-68
2022/07/14 02:39:42;;;;;;;7.65;2.67;;;12.10;99.90;;;;;;5012273;28;20177;-67
2022/07/14 02:42:07;;;;;;;9.45;2.70;;;12.10;99.90;;;;;;4975078;28;20107;-66
2022/07/14 02:44:33;;;;;;;5.55;2.20;;;12.00;99.90;;;;;;4983572;28;20119;-65
2022/07/14 02:46:59;;;;;;;6.10;2.05;;;11.90;99.90;;;;;;4971211;28;20062;-65
2022/07/14 02:49:24;;;;;;;10.75;3.70;;;11.90;99.90;;;;;;4995834;28;20430;-65
2022/07/14 02:51:50;;;;;;;4.00;2.10;;;11.90;99.90;;;;;;5005545;28;20495;-65
2022/07/14 02:54:17;;;;;;;1.48;1.02;;;11.80;99.90;;;;;;4997851;28;20478;-65
2022/07/14 02:56:43;;;;;;;4.20;2.08;;;11.80;99.90;;;;;;5006445;28;20038;-66
2022/07/14 02:59:09;;;;;;;6.68;2.60;;;11.70;99.90;;;;;;4965419;28;20518;-67
2022/07/14 03:01:34;;;;;;;8.48;3.30;;;11.60;99.90;;;;;;5003607;28;20046;-65
2022/07/14 03:04:00;;;;;;;10.68;3.28;;;11.60;99.90;;;;;;5003762;28;20050;-65
2022/07/14 03:06:26;;;;;;;9.75;3.33;;;11.60;99.90;;;;;;4988439;28;20505;-66
2022/07/14 03:08:51;;;;;;;4.70;2.30;;;11.60;99.90;;;;;;4997066;28;20050;-66
2022/07/14 03:11:17;;;;;;;5.45;2.00;;;11.60;99.90;;;;;;4989952;28;20046;-66
2022/07/14 03:13:43;;;;;;;3.75;2.20;;;11.60;99.90;;;;;;4996420;28;20060;-66
2022/07/14 03:16:09;;;;;;;5.85;2.60;;;11.50;99.90;;;;;;4970487;28;20042;-66
2022/07/14 03:18:36;;;;;;;6.72;2.90;;;11.50;99.90;;;;;;4996792;28;20057;-66
2022/07/14 03:21:09;;;;;;;5.68;2.47;;;11.50;99.90;;;;;;4988749;28;20390;-65
2022/07/14 03:23:35;;;;;;;5.68;2.33;;;11.50;99.90;;;;;;5003849;28;20054;-65
2022/07/14 03:26:01;;;;;;;3.00;1.60;;;11.40;99.90;;;;;;5008234;28;20127;-65
2022/07/14 03:28:28;;;;;;;2.90;1.83;;;11.40;99.90;;;;;;5015099;28;20044;-66
2022/07/14 03:30:55;;;;;;;3.75;2.03;;;11.40;99.90;;;;;;4979474;28;20042;-66
2022/07/14 03:33:21;;;;;;;7.80;2.50;;;11.30;99.90;;;;;;4973152;28;20064;-66
2022/07/14 03:35:48;;;;;;;8.23;2.90;;;11.30;99.90;;;;;;4992994;28;20084;-68
2022/07/14 03:38:14;;;;;;;3.20;2.00;;;11.40;99.90;;;;;;5011880;28;20076;-66
2022/07/14 03:40:40;;;;;;;5.47;2.40;;;11.40;99.90;;;;;;5005977;28;20474;-67
2022/07/14 03:43:05;;;;;;;8.38;3.17;;;11.40;99.90;;;;;;4975966;28;20054;-66
2022/07/14 03:45:31;;;;;;;7.18;2.47;;;11.30;99.90;;;;;;4983071;28;20558;-65
2022/07/14 03:47:57;;;;;;;2.65;1.90;;;11.40;99.90;;;;;;4962494;28;20046;-68
2022/07/14 03:50:23;;;;;;;4.03;1.75;;;11.30;99.90;;;;;;4984595;28;20049;-67
2022/07/14 03:52:48;;;;;;;5.65;2.30;;;11.30;99.90;;;;;;5011093;28;20065;-66
2022/07/14 03:55:14;;;;;;;6.72;2.67;;;11.40;99.90;;;;;;4993676;28;20050;-66
2022/07/14 03:57:40;;;;;;;7.18;3.17;;;11.40;99.90;;;;;;4989447;28;20402;-66
2022/07/14 04:00:06;;;;;;;7.55;2.67;;;11.40;99.90;;;;;;4990431;28;20045;-66
2022/07/14 04:02:32;;;;;;;7.93;2.92;;;11.40;99.90;;;;;;5032714;28;20053;-65
2022/07/14 04:04:58;;;;;;;9.45;3.10;;;11.50;99.90;;;;;;5000121;28;20076;-65
2022/07/14 04:07:24;;;;;;;6.53;3.40;;;11.50;99.90;;;;;;4992817;28;20154;-67
2022/07/14 04:09:50;;;;;;;6.18;2.97;;;11.60;99.90;;;;;;4973423;28;20084;-66
2022/07/14 04:12:16;;;;;;;7.18;2.58;;;11.60;99.90;;;;;;4972723;28;20042;-69
2022/07/14 04:14:42;;;;;;;6.40;2.72;;;11.60;99.90;;;;;;4982557;28;20080;-65
2022/07/14 04:17:07;;;;;;;5.90;3.03;;;11.60;99.90;;;;;;4996293;28;20057;-65
2022/07/14 04:19:33;;;;;;;10.35;3.90;;;11.60;99.90;;;;;;5025801;28;20171;-67
2022/07/14 04:22:00;;;;;;;7.13;3.13;;;11.70;99.90;;;;;;5016230;28;20089;-65
2022/07/14 04:24:25;;;;;;;6.38;3.85;;;11.80;99.90;;;;;;5016118;28;20057;-68
2022/07/14 04:26:51;;;;;;;11.32;4.15;;;12.00;99.90;;;;;;4976282;28;20049;-68
2022/07/14 04:29:17;;;;;;;11.13;4.40;;;11.90;99.90;;;;;;4982898;28;20157;-69
2022/07/14 04:31:43;;;;;;;11.93;4.50;;;12.00;99.90;;;;;;5004618;28;20126;-65
2022/07/14 04:34:10;;;;;;;7.05;3.80;;;12.10;99.90;;;;;;5007129;28;20049;-66
2022/07/14 04:36:36;;;;;;;8.90;3.50;;;12.20;99.90;;;;;;5012622;28;20536;-69
2022/07/14 04:39:04;;;;;;;7.50;3.38;;;12.10;99.90;;;;;;4947998;28;20140;-67
2022/07/14 04:41:30;;;;;;;6.63;3.30;;;12.20;99.90;;;;;;4987178;28;20054;-66
2022/07/14 04:43:55;;;;;;;10.20;4.43;;;12.20;99.90;;;;;;5002899;28;20044;-66
2022/07/14 04:46:21;;;;;;;8.43;3.83;;;12.20;99.90;;;;;;4988907;28;20038;-66
2022/07/14 04:54:16;;;;;;;13.65;4.50;;;12.50;99.90;;;;;;5015341;28;20115;-69
2022/07/14 04:56:42;;;;;;;16.75;5.00;;;12.60;99.90;;;;;;5005360;28;20049;-66
2022/07/14 04:59:07;;;;;;;12.25;4.47;;;12.80;99.90;;;;;;4993013;28;20045;-67
2022/07/14 05:01:33;;;;;;;12.27;4.90;;;12.80;99.90;;;;;;4988253;28;20045;-67
2022/07/14 05:03:59;;;;;;;13.30;4.40;;;12.80;99.90;;;;;;4995482;28;20049;-66
2022/07/14 05:06:25;;;;;;;10.20;4.93;;;13.00;99.90;;;;;;4998918;28;20053;-66
2022/07/14 05:08:50;;;;;;;11.52;4.32;;;13.10;99.90;;;;;;4999264;28;20095;-66
2022/07/14 05:11:16;;;;;;;12.57;4.88;;;13.20;99.90;;;;;;4998394;28;20100;-67
2022/07/14 05:13:42;;;;;;;11.85;4.53;;;13.20;99.90;;;;;;5028564;28;20049;-65
2022/07/14 05:16:08;;;;;;;13.52;4.35;;;13.40;99.90;;;;;;5031398;28;20061;-66
2022/07/14 05:18:33;;;;;;;12.75;4.50;;;13.40;99.90;;;;;;4998615;28;20061;-68
2022/07/14 05:20:59;;;;;;;10.50;4.13;;;13.60;99.90;;;;;;4992402;28;20056;-68
2022/07/14 05:23:25;;;;;;;12.55;4.97;;;13.60;99.90;;;;;;5008146;28;20470;-67
2022/07/14 05:25:50;;;;;;;8.88;4.25;;;13.80;99.90;;;;;;5003435;28;20057;-66
2022/07/14 05:28:16;;;;;;;12.65;4.63;;;13.90;99.90;;;;;;4979431;28;20050;-66
2022/07/14 05:30:42;;;;;;;10.30;4.00;;;14.00;99.90;;;;;;4963215;28;20057;-66
2022/07/14 05:33:08;;;;;;;13.20;3.88;;;14.20;99.90;;;;;;4962972;28;20054;-66
2022/07/14 05:35:34;;;;;;;10.48;3.65;;;14.30;99.90;;;;;;4978249;28;20038;-66
2022/07/14 05:37:59;;;;;;;9.77;3.70;;;14.50;99.90;;;;;;5029329;28;20045;-67
2022/07/14 05:40:25;;;;;;;7.18;3.22;;;14.60;99.90;;;;;;4999299;28;20042;-68
2022/07/14 05:42:51;;;;;;;6.85;3.03;;;14.80;99.90;;;;;;4987323;28;20073;-68
2022/07/14 05:45:17;;;;;;;6.75;2.63;;;15.00;99.90;;;;;;5004082;28;20089;-67
2022/07/14 05:47:43;;;;;;;14.98;3.05;;;15.10;99.90;;;;;;4985901;28;20554;-66
2022/07/14 05:50:09;;;;;;;8.32;2.90;;;15.20;99.90;;;;;;5004581;28;20076;-67
2022/07/14 05:52:35;;;;;;;9.15;2.70;;;15.30;99.90;;;;;;4995546;28;20095;-66
2022/07/14 05:55:01;;;;;;;7.75;2.80;;;15.50;99.90;;;;;;5014297;28;20128;-68
2022/07/14 05:57:27;;;;;;;8.18;2.50;;;15.60;99.90;;;;;;4998041;28;20553;-67
2022/07/14 05:59:53;;;;;;;7.38;1.80;;;15.80;99.90;;;;;;4998234;28;20046;-66
2022/07/14 06:02:19;;;;;;;5.93;1.77;;;15.90;99.90;;;;;;5014285;28;20038;-67
2022/07/14 06:04:44;;;;;;;7.68;1.83;;;16.00;99.90;;;;;;5010087;28;20046;-66
2022/07/14 06:07:16;;;;;;;6.85;2.33;;;16.10;99.90;;;;;;4971402;28;20042;-69
2022/07/14 06:09:42;;;;;;;8.32;1.80;;;16.20;99.90;;;;;;4963822;28;20046;-66
2022/07/14 06:12:09;;;;;;;6.25;1.63;;;16.30;99.90;;;;;;4973629;28;20398;-66
2022/07/14 06:14:35;;;;;;;8.35;1.95;;;16.40;99.90;;;;;;5005564;28;20049;-66
2022/07/14 06:17:01;;;;;;;5.85;1.30;;;16.60;99.90;;;;;;5013787;28;20060;-66
2022/07/14 06:19:27;;;;;;;8.15;1.50;;;16.70;99.90;;;;;;5005230;28;20050;-66
2022/07/14 06:21:52;;;;;;;4.88;1.20;;;16.80;99.90;;;;;;4995795;28;20379;-69
2022/07/14 06:24:18;;;;;;;6.55;1.40;;;17.00;99.90;;;;;;5013901;28;20054;-67
2022/07/14 06:26:44;;;;;;;4.65;1.33;;;17.00;99.90;;;;;;5000713;28;20046;-65
2022/07/14 06:29:10;;;;;;;4.25;0.98;;;17.20;99.90;;;;;;4985892;28;20049;-66
2022/07/14 06:31:36;;;;;;;5.53;0.90;;;17.30;99.90;;;;;;4971336;28;20077;-66
2022/07/14 06:34:08;;;;;;;3.92;1.13;;;17.40;99.90;;;;;;4966762;28;20054;-68
2022/07/14 06:36:34;;;;;;;2.65;0.88;;;17.40;99.90;;;;;;5004726;28;20037;-66
2022/07/14 06:39:00;;;;;;;14.90;1.38;;;17.40;99.90;;;;;;5007167;28;20052;-66
2022/07/14 06:41:25;;;;;;;6.05;1.00;;;17.50;99.90;;;;;;5014184;28;20530;-65
2022/07/14 06:43:51;;;;;;;3.47;1.00;;;17.60;99.90;;;;;;5014210;28;20045;-65
2022/07/14 06:46:17;;;;;;;4.80;1.10;;;17.60;99.90;;;;;;5010785;28;20096;-68
2022/07/14 06:48:45;;;;;;;3.40;0.90;;;17.60;99.90;;;;;;5001326;28;20050;-66
2022/07/14 06:51:11;;;;;;;3.53;0.80;;;17.70;99.90;;;;;;4987865;28;20593;-66
2022/07/14 06:53:36;;;;;;;5.85;0.90;;;17.80;99.90;;;;;;4984096;28;20054;-67
2022/07/14 06:56:02;;;;;;;5.47;0.90;;;17.70;99.90;;;;;;4998113;28;20164;-66
2022/07/14 06:58:28;;;;;;;4.70;0.88;;;17.80;99.90;;;;;;5011772;28;20083;-66
2022/07/14 07:00:54;;;;;;;3.97;0.80;;;17.80;99.90;;;;;;5017831;28;20041;-65
2022/07/14 07:03:19;;;;;;;5.78;0.82;;;17.90;99.90;;;;;;4987328;28;20137;-66
2022/07/14 07:08:29;;;;;;;3.17;0.95;;;18.10;99.90;;;;;;5017758;28;20049;-66
2022/07/14 07:10:56;;;;;;;4.90;0.80;;;18.20;99.90;;;;;;5010707;28;20053;-66
2022/07/14 07:13:23;;;;;;;2.70;0.70;;;18.30;99.90;;;;;;4997820;28;20069;-66
2022/07/14 07:15:48;;;;;;;4.45;0.90;;;18.20;99.90;;;;;;4997496;28;20422;-67
2022/07/14 07:18:17;;;;;;;3.10;0.80;;;18.40;99.90;;;;;;4982704;28;20054;-66
2022/07/14 07:20:44;;;;;;;7.68;0.85;;;18.50;99.90;;;;;;5017153;28;20118;-66
2022/07/14 07:23:10;;;;;;;4.05;0.90;;;18.50;99.90;;;;;;5001260;28;20049;-67
2022/07/14 07:25:35;;;;;;;3.85;0.77;;;18.50;99.90;;;;;;5006997;28;20045;-66
2022/07/14 07:28:01;;;;;;;4.32;0.82;;;18.40;99.90;;;;;;5013002;28;20241;-66
2022/07/14 07:30:28;;;;;;;2.20;0.70;;;18.40;99.90;;;;;;5009659;28;20038;-68
2022/07/14 07:32:54;;;;;;;5.20;1.10;;;18.30;99.90;;;;;;4995284;28;20095;-66
2022/07/14 07:35:19;;;;;;;3.17;0.70;;;18.40;99.90;;;;;;4995864;28;20077;-66
2022/07/14 07:37:46;;;;;;;3.70;0.77;;;18.40;99.90;;;;;;4996458;28;20426;-66
2022/07/14 07:40:12;;;;;;;4.75;0.90;;;18.40;99.90;;;;;;4992665;28;20053;-65
2022/07/14 07:42:38;;;;;;;2.78;0.70;;;18.40;99.90;;;;;;4994506;28;20046;-66
2022/07/14 07:45:04;;;;;;;2.63;0.77;;;18.30;99.90;;;;;;5016523;28;20064;-68
2022/07/14 07:47:30;;;;;;;3.05;0.70;;;18.40;99.90;;;;;;5016018;28;20056;-67
2022/07/14 07:49:56;;;;;;;3.17;0.70;;;18.80;99.90;;;;;;4988037;28;20120;-66
2022/07/14 07:52:25;;;;;;;4.53;1.08;;;19.00;99.90;;;;;;4968133;28;20077;-66
2022/07/14 07:54:50;;;;;;;2.72;0.63;;;19.30;99.90;;;;;;4984316;28;20129;-66
2022/07/14 07:57:16;;;;;;;2.13;0.80;;;18.90;99.90;;;;;;4993971;28;20140;-66
2022/07/14 07:59:42;;;;;;;3.10;0.90;;;18.90;99.90;;;;;;4990098;28;20049;-66
2022/07/14 08:02:08;;;;;;;2.40;0.60;;;18.90;99.90;;;;;;4997375;28;20057;-66
2022/07/14 08:04:34;;;;;;;1.20;0.50;;;18.80;99.90;;;;;;5013725;28;20054;-67
2022/07/14 08:06:59;;;;;;;3.20;0.70;;;19.00;99.90;;;;;;5013586;28;20133;-66
2022/07/14 08:09:25;;;;;;;3.33;0.70;;;19.00;99.90;;;;;;4979886;28;20064;-66
2022/07/14 08:11:51;;;;;;;4.53;0.70;;;19.20;99.90;;;;;;5013509;28;20229;-68
2022/07/14 08:17:01;;;;;;;2.42;0.55;;;19.60;99.90;;;;;;5012641;28;20123;-66
2022/07/14 08:19:27;;;;;;;2.92;0.60;;;19.80;99.90;;;;;;4993269;28;20050;-66
2022/07/14 08:21:54;;;;;;;5.90;0.60;;;19.90;99.90;;;;;;5006806;28;20050;-65
2022/07/14 08:24:20;;;;;;;3.20;0.60;;;20.20;99.90;;;;;;4994135;28;20428;-66
2022/07/14 08:26:46;;;;;;;3.78;0.45;;;20.40;99.90;;;;;;5013490;28;20087;-65
2022/07/14 08:29:12;;;;;;;2.22;0.60;;;20.50;99.90;;;;;;5005859;28;20046;-68
2022/07/14 08:31:38;;;;;;;1.63;0.50;;;20.50;99.90;;;;;;5016140;28;20536;-67
2022/07/14 08:34:03;;;;;;;2.03;0.70;;;20.60;99.90;;;;;;4999598;28;20536;-66
2022/07/14 08:36:30;;;;;;;3.85;0.80;;;20.60;99.90;;;;;;4997638;28;20042;-66
2022/07/14 08:38:56;;;;;;;3.50;0.50;;;20.70;99.90;;;;;;4975858;28;20060;-66
2022/07/14 08:41:22;;;;;;;3.30;0.60;;;20.80;99.90;;;;;;4986678;28;20491;-66
2022/07/14 08:43:49;;;;;;;3.08;0.55;;;20.80;99.90;;;;;;4986356;28;20048;-69
2022/07/14 08:46:15;;;;;;;2.20;0.60;;;20.80;99.90;;;;;;4991558;28;20462;-66
2022/07/14 08:48:40;;;;;;;2.15;0.65;;;20.70;99.90;;;;;;4986856;28;20487;-67
2022/07/14 08:51:08;;;;;;;2.35;0.60;;;20.60;99.90;;;;;;4987888;28;20138;-66
2022/07/14 08:53:35;;;;;;;3.28;0.60;;;20.60;99.90;;;;;;4987622;28;20510;-67
2022/07/14 08:56:01;;;;;;;4.15;0.52;;;20.90;99.90;;;;;;4989991;28;20104;-66
2022/07/14 08:58:26;;;;;;;10.70;2.58;;;21.30;99.90;;;;;;4989462;28;20038;-70
2022/07/14 09:00:53;;;;;;;11.45;3.15;;;21.60;99.90;;;;;;5023091;28;20140;-66
2022/07/14 09:03:19;;;;;;;3.78;0.70;;;21.60;99.90;;;;;;5007489;28;20372;-68
2022/07/14 09:05:45;;;;;;;2.25;0.77;;;21.50;99.90;;;;;;4981879;28;20048;-69
2022/07/14 09:08:14;;;;;;;3.58;0.70;;;21.40;99.90;;;;;;4974969;28;20058;-69
2022/07/14 09:10:42;;;;;;;3.00;0.70;;;21.50;99.90;;;;;;5003240;28;20128;-70
2022/07/14 09:13:28;;;;;;;3.13;0.73;;;21.50;99.90;;;;;;4986515;28;20152;-70
2022/07/14 09:16:22;;;;;;;1.23;0.50;;;21.30;99.90;;;;;;4988078;28;20482;-69
2022/07/14 09:19:05;;;;;;;3.28;0.60;;;21.30;99.90;;;;;;4988207;28;20049;-72
2022/07/14 09:21:32;;;;;;;2.65;0.57;;;21.30;99.90;;;;;;5003042;28;20046;-71
2022/07/14 09:23:58;;;;;;;2.25;0.50;;;21.10;99.90;;;;;;5000759;28;20050;-72
2022/07/14 09:26:25;;;;;;;4.57;0.90;;;21.20;99.90;;;;;;4986052;28;20739;-68
2022/07/14 09:28:52;;;;;;;2.88;0.90;;;21.20;99.90;;;;;;4986350;28;20053;-68
2022/07/14 09:31:21;;;;;;;3.20;0.60;;;21.20;99.90;;;;;;5008784;28;20083;-72
2022/07/14 09:33:52;;;;;;;4.00;0.70;;;21.30;99.90;;;;;;5014660;28;20493;-76
2022/07/14 09:36:28;;;;;;;3.17;0.73;;;21.70;99.90;;;;;;4995494;28;20050;-70
2022/07/14 09:39:02;;;;;;;3.22;0.65;;;21.90;99.90;;;;;;4987780;28;20042;-71
2022/07/14 09:41:32;;;;;;;3.10;0.60;;;22.00;99.90;;;;;;4998018;28;20394;-73
2022/07/14 09:44:16;;;;;;;1.67;0.60;;;22.00;99.90;;;;;;4993838;28;20372;-67
2022/07/14 09:46:54;;;;;;;1.67;0.70;;;21.80;99.90;;;;;;4987714;28;20046;-67
2022/07/14 09:49:28;;;;;;;3.13;0.70;;;21.80;99.90;;;;;;4993131;28;20042;-67
2022/07/14 09:52:00;;;;;;;1.60;0.57;;;21.60;99.90;;;;;;5006320;28;20049;-66
2022/07/14 09:54:44;;;;;;;1.63;0.77;;;21.50;99.70;;;;;;5008165;28;20499;-67
2022/07/14 09:57:12;;;;;;;3.35;0.77;;;21.90;99.90;;;;;;5009157;28;20566;-67
2022/07/14 09:59:49;;;;;;;2.88;0.70;;;22.10;99.90;;;;;;4995042;28;20057;-67
2022/07/14 10:02:18;;;;;;;2.60;0.57;;;22.00;99.90;;;;;;4991655;28;20082;-67
2022/07/14 10:04:44;;;;;;;2.97;0.65;;;22.10;99.90;;;;;;4985677;28;20050;-67
2022/07/14 10:07:14;;;;;;;3.33;0.60;;;22.00;99.90;;;;;;5009991;28;20084;-67
2022/07/14 10:09:46;;;;;;;2.90;0.60;;;21.70;99.90;;;;;;5014540;28;20096;-68
2022/07/14 10:12:12;;;;;;;2.70;0.65;;;21.70;99.90;;;;;;4992798;28;20057;-67
2022/07/14 10:14:39;;;;;;;3.55;0.70;;;21.80;99.90;;;;;;5000403;28;20750;-67
2022/07/14 10:17:05;;;;;;;1.45;0.63;;;21.80;99.90;;;;;;4994823;28;20433;-67
2022/07/14 10:19:31;;;;;;;1.77;0.63;;;22.00;99.90;;;;;;4983845;28;20058;-66
2022/07/14 10:21:59;;;;;;;2.20;0.60;;;22.10;99.90;;;;;;4978769;28;20054;-69
2022/07/14 10:24:25;;;;;;;3.17;0.90;;;22.10;99.70;;;;;;5006372;28;20475;-68
2022/07/14 10:26:53;;;;;;;1.40;0.50;;;22.20;99.90;;;;;;5000483;28;20042;-68
2022/07/14 10:29:19;;;;;;;4.65;0.80;;;22.10;99.60;;;;;;4991451;28;20046;-67
2022/07/14 10:31:59;;;;;;;2.50;0.55;;;22.30;99.90;;;;;;4988934;28;20096;-66
2022/07/14 10:34:36;;;;;;;3.58;0.70;;;22.40;99.90;;;;;;5003599;28;20276;-65
2022/07/14 10:37:11;;;;;;;5.10;0.70;;;22.70;99.90;;;;;;4991421;28;20675;-67
2022/07/14 10:40:01;;;;;;;2.17;0.70;;;22.70;98.50;;;;;;4986417;28;20750;-66
2022/07/14 10:42:52;;;;;;;4.10;0.73;;;22.80;98.20;;;;;;4982865;28;20054;-66
2022/07/14 10:45:18;;;;;;;2.58;0.50;;;22.80;96.10;;;;;;4970049;28;20050;-69
2022/07/14 10:47:48;;;;;;;1.65;0.60;;;22.60;97.90;;;;;;5013945;28;20046;-66
2022/07/14 10:50:23;;;;;;;1.98;0.60;;;22.60;96.70;;;;;;5030509;28;20060;-65
2022/07/14 10:53:05;;;;;;;2.38;0.65;;;22.70;94.70;;;;;;4997248;28;20057;-67
2022/07/14 10:55:31;;;;;;;2.63;0.57;;;22.50;97.00;;;;;;5013608;28;20042;-67
2022/07/14 10:58:03;;;;;;;1.92;0.50;;;22.30;96.80;;;;;;5013875;28;20049;-66
2022/07/14 11:00:43;;;;;;;2.40;0.50;;;22.20;97.40;;;;;;4987054;28;20096;-66
2022/07/14 11:03:48;;;;;;;2.53;0.68;;;22.10;96.50;;;;;;4973567;28;20052;-66
2022/07/14 11:06:17;;;;;;;1.95;0.65;;;22.20;97.20;;;;;;4982852;28;20057;-66
2022/07/14 11:08:44;;;;;;;2.13;0.60;;;22.00;96.90;;;;;;4993647;28;20168;-66
2022/07/14 11:11:23;;;;;;;2.00;0.85;;;22.00;97.80;;;;;;5013871;28;20057;-66
2022/07/14 11:14:01;;;;;;;4.20;0.70;;;21.80;96.70;;;;;;4978285;28;20056;-67
2022/07/14 11:16:50;;;;;;;3.30;0.60;;;21.80;97.80;;;;;;5005215;28;20054;-65
2022/07/14 11:19:24;;;;;;;2.83;0.70;;;21.70;98.60;;;;;;5013847;28;20121;-66
2022/07/14 11:22:08;;;;;;;4.32;0.77;;;21.60;97.80;;;;;;5013597;28;20156;-66
2022/07/14 11:24:35;;;;;;;2.10;0.63;;;21.50;98.40;;;;;;4995274;28;20398;-66
2022/07/14 11:27:39;;;;;;;1.83;0.60;;;21.10;98.90;;;;;;5006898;28;20078;-66
2022/07/14 11:30:25;;;;;;;3.03;0.73;;;21.00;99.90;;;;;;4998846;28;20053;-66
2022/07/14 11:33:02;;;;;;;4.97;0.70;;;21.00;99.90;;;;;;5013198;28;20049;-66
2022/07/14 11:38:39;;;;;;;2.08;0.70;;;21.20;99.90;;;;;;5013084;28;20060;-66
2022/07/14 11:41:10;;;;;;;3.75;0.80;;;21.20;99.90;;;;;;4997548;28;20073;-65
2022/07/14 11:43:48;;;;;;;3.85;0.80;;;21.40;99.90;;;;;;5002610;28;20045;-65
2022/07/14 11:46:17;;;;;;;4.72;0.93;;;21.60;99.90;;;;;;4988778;28;20092;-67
2022/07/14 11:48:46;;;;;;;3.47;0.80;;;21.70;99.90;;;;;;4986962;28;20046;-66
2022/07/14 11:51:16;;;;;;;7.68;1.00;;;21.70;99.90;;;;;;4971012;28;20145;-65
2022/07/14 11:53:42;;;;;;;3.60;0.80;;;22.10;99.90;;;;;;4982971;28;20045;-68
2022/07/14 11:56:09;;;;;;;2.40;0.70;;;22.40;99.90;;;;;;4989828;28;20112;-66
2022/07/14 11:58:39;;;;;;;4.55;0.70;;;22.60;99.90;;;;;;4987413;28;20057;-66
2022/07/14 12:01:07;;;;;;;2.17;0.52;;;23.00;99.90;;;;;;4993722;28;20050;-66
2022/07/14 12:03:33;;;;;;;2.75;0.75;;;23.30;99.90;;;;;;4978731;28;20048;-66
2022/07/14 12:06:00;;;;;;;3.00;0.70;;;23.50;98.70;;;;;;4994348;28;20041;-66
2022/07/14 12:08:29;;;;;;;1.80;0.50;;;23.90;97.60;;;;;;4965025;28;20070;-68
2022/07/14 12:11:01;;;;;;;2.03;0.65;;;24.20;96.00;;;;;;4986722;28;20061;-66
2022/07/14 12:13:27;;;;;;;4.57;0.80;;;24.40;93.70;;;;;;4978757;28;20049;-66
2022/07/14 12:16:03;;;;;;;2.97;0.75;;;24.30;93.70;;;;;;5015991;28;20115;-68
2022/07/14 12:18:31;;;;;;;2.40;0.50;;;24.00;91.40;;;;;;5012584;28;20062;-66
2022/07/14 12:20:59;;;;;;;1.48;0.57;;;23.90;91.80;;;;;;5013052;28;20438;-68
2022/07/14 12:23:25;;;;;;;3.45;0.50;;;24.10;92.30;;;;;;4985693;28;20056;-67
2022/07/14 12:25:51;;;;;;;4.95;0.90;;;24.10;91.90;;;;;;4987683;28;20115;-67
2022/07/14 12:28:18;;;;;;;6.05;0.80;;;24.00;91.70;;;;;;4979647;28;20133;-68
2022/07/14 12:30:56;;;;;;;3.45;0.65;;;24.00;90.40;;;;;;4961658;28;20107;-66
2022/07/14 12:33:41;;;;;;;5.03;1.15;;;24.20;90.00;;;;;;4976997;28;20169;-67
2022/07/14 12:36:17;;;;;;;3.92;0.68;;;24.10;90.10;;;;;;4977127;28;20050;-67
2022/07/14 12:38:44;;;;;;;2.25;0.60;;;23.50;87.40;;;;;;4968983;28;20046;-67
2022/07/14 12:41:11;;;;;;;1.70;0.70;;;22.90;86.50;;;;;;4984942;28;20057;-67
2022/07/14 12:43:47;;;;;;;2.58;0.60;;;22.60;87.80;;;;;;4966163;28;20038;-68
2022/07/14 12:46:16;;;;;;;1.40;0.70;;;22.50;90.00;;;;;;4992526;28;20081;-67
2022/07/14 12:48:48;;;;;;;2.25;0.68;;;22.30;90.50;;;;;;4980374;28;20045;-66
2022/07/14 12:51:17;;;;;;;3.78;0.80;;;22.20;89.80;;;;;;4996042;28;20057;-66
2022/07/14 12:54:06;;;;;;;3.33;0.77;;;21.70;90.60;;;;;;4978962;28;20049;-66
2022/07/14 12:56:44;;;;;;;2.58;0.90;;;21.60;91.50;;;;;;4996155;28;20050;-66
2022/07/14 12:59:19;;;;;;;2.88;0.90;;;21.40;92.00;;;;;;4978352;28;20124;-66
2022/07/14 13:01:50;;;;;;;2.13;0.82;;;21.40;92.30;;;;;;4962553;28;20050;-68
2022/07/14 13:04:36;;;;;;;2.92;0.75;;;21.40;92.90;;;;;;4971483;28;20376;-65
2022/07/14 13:07:27;;;;;;;2.13;0.90;;;21.90;94.70;;;;;;4983725;28;20069;-66